Aérodrome :
LOGIN :

S'inscrire | Disclaimer

   EN    FR    IT 

 










Légende :    VFR   VFR Marginal   IFR   IFR Intensif   IFR Très Intensif
Visi : 
Plafond : 
>= 8 km
>= 3000ft
5 à 8 km
1000 à 3000 ft
1500m à 5 km
500 à 1000 ft
800 à 1500m
200 à 500 ft
< 800m
< 200 ft
Symboles :   Orages  Brouillard  Fortes neiges  Fortes précipitations  Vent > 20 kt
SIGMETs :   Divers  Orages  Givrage  Turbulence  Onde Orograph.  Cendres Volcan.







- Altitude de l'aérodrome : 15 ft
- Code IATA : BHD
- Voir les cartes d'approche


EGAC - George Best Belfast City

DERNIER METAR :
  • 170920Z AUTO 20017KT 9999 FEW027/// SCT032/// 15/09 Q1008

METARs EXPIRÉS :
  • 170850Z AUTO 20016KT 9999 SCT022/// BKN027/// 14/09 Q1008
  • 170820Z AUTO 21015KT 9999 SCT019/// 14/10 Q1008
  • 170750Z AUTO 21012KT 9999 NCD 13/09 Q1008
  • 170720Z AUTO 21014KT 9999 FEW022/// 13/09 Q1008
  • 170650Z AUTO 21011KT 9999 NCD 13/10 Q1008

TAF TAF EGAC
Valide du 17 à 09h jusqu'au 17 à 18h UTC


170757Z 1709/1718 22012KT 9999 FEW018CB SCT030
TEMPO 1709/1718 7000 SHRA
PROB30
TEMPO 1711/1718 23015G25KT 3000 +SHRA +TSGS
ATIS : +44 02890 935 124
Pas de NOTAMs connus pour ce terrain.



MET'MAP, la Météo Aéronautique d'un coup d'oeil ! - Copyright ORBIFLY Décembre 2007 - Disclaimer

ORBIFLY MET'MAP TEAM :

Programmation & Développement : Alexandra Zaïnal
Conception & Développement : Baudouin d'Aumeries
Co-Programmation & Développement : Marc-Olivier Méhu
Soutien technique & logistique : Manuel Goepfert

Contact : metmap@orbifly.com




SOURCES & CREDITS :

   NOAA